Time;durP1;ratioP1;P1;durP2;ratioP2;P2;SDS_P1;SDS_P2;PMS_P1;PMS_P2;Temp;Humidity;BMP_temperature;BMP_pressure;BME280_temperature;BME280_humidity;BME280_pressure;Samples;Min_cycle;Max_cycle;Signal;HPM_P1;HPM_P2
2023/04/04 00:00:49;;;;;;;6.03;2.40;;;5.50;99.90;;;;;;5081229;28;20179;-90
2023/04/04 00:03:15;;;;;;;4.57;2.10;;;5.50;99.90;;;;;;5063023;28;20172;-90
2023/04/04 00:05:41;;;;;;;5.83;2.40;;;5.60;99.90;;;;;;5062649;28;20180;-90
2023/04/04 00:08:07;;;;;;;7.03;2.10;;;5.60;99.90;;;;;;5062706;28;20173;-90
2023/04/04 00:10:33;;;;;;;5.43;2.10;;;5.50;99.90;;;;;;5063895;28;20176;-91
2023/04/04 00:13:01;;;;;;;5.23;2.20;;;5.50;99.90;;;;;;5065848;28;20176;-90
2023/04/04 00:15:27;;;;;;;8.30;2.50;;;5.40;99.90;;;;;;5079537;28;20173;-89
2023/04/04 00:17:57;;;;;;;7.00;2.20;;;5.50;99.90;;;;;;5078390;28;20196;-90
2023/04/04 00:20:23;;;;;;;5.57;2.17;;;5.60;99.90;;;;;;5065354;28;20172;-91
2023/04/04 00:22:50;;;;;;;4.80;2.10;;;5.50;99.90;;;;;;5064730;28;20160;-90
2023/04/04 00:25:16;;;;;;;4.63;2.20;;;5.50;99.90;;;;;;5065956;28;20172;-90
2023/04/04 00:27:41;;;;;;;3.43;2.03;;;5.40;99.90;;;;;;5063557;28;20172;-91
2023/04/04 00:30:09;;;;;;;6.30;2.07;;;5.50;99.90;;;;;;5062909;28;20282;-91
2023/04/04 00:32:34;;;;;;;5.40;2.20;;;5.50;99.90;;;;;;5062728;28;20172;-90
2023/04/04 00:35:01;;;;;;;5.93;1.87;;;5.50;99.90;;;;;;5079703;28;20207;-90
2023/04/04 00:37:27;;;;;;;5.77;2.47;;;5.50;99.90;;;;;;5067219;28;20212;-90
2023/04/04 00:39:56;;;;;;;6.13;2.47;;;5.60;99.90;;;;;;5063486;28;20177;-91
2023/04/04 00:42:21;;;;;;;3.50;1.83;;;5.70;99.90;;;;;;5083719;28;20168;-91
2023/04/04 00:44:51;;;;;;;5.33;2.00;;;5.50;99.90;;;;;;5074811;28;20225;-90
2023/04/04 00:47:41;;;;;;;5.63;2.00;;;5.50;99.90;;;;;;5081079;28;20187;-89
2023/04/04 00:50:10;;;;;;;4.13;1.83;;;5.50;99.90;;;;;;5100306;28;20208;-89
2023/04/04 00:52:36;;;;;;;6.23;2.03;;;5.50;99.90;;;;;;5070931;28;20704;-90
2023/04/04 00:55:05;;;;;;;7.30;2.10;;;5.50;99.90;;;;;;5064599;28;20217;-89
2023/04/04 00:57:33;;;;;;;3.97;2.17;;;5.40;99.90;;;;;;5072027;28;20208;-91
2023/04/04 01:00:05;;;;;;;6.20;2.07;;;5.40;99.90;;;;;;5069694;28;20156;-91
2023/04/04 01:02:31;;;;;;;3.73;1.80;;;5.50;99.90;;;;;;5074468;28;20234;-91
2023/04/04 01:04:59;;;;;;;4.43;2.00;;;5.40;99.90;;;;;;5076011;28;20172;-91
2023/04/04 01:07:25;;;;;;;5.37;2.20;;;5.30;99.90;;;;;;5073630;28;20176;-91
2023/04/04 01:09:54;;;;;;;4.83;1.93;;;5.30;99.90;;;;;;5065544;28;20231;-91
2023/04/04 01:12:20;;;;;;;4.30;1.60;;;5.20;99.90;;;;;;5063710;28;20173;-91
2023/04/04 01:14:46;;;;;;;4.80;2.13;;;5.30;99.90;;;;;;5062007;28;20275;-92
2023/04/04 01:17:12;;;;;;;6.37;2.00;;;5.20;99.90;;;;;;5080519;28;20186;-92
2023/04/04 01:19:46;;;;;;;5.90;2.00;;;5.20;99.90;;;;;;5068277;28;20185;-90
2023/04/04 01:22:15;;;;;;;3.60;1.90;;;5.10;99.90;;;;;;5063194;28;20164;-91
2023/04/04 01:24:43;;;;;;;3.33;1.90;;;5.40;99.90;;;;;;5059280;28;20172;-90
2023/04/04 01:27:13;;;;;;;5.77;2.33;;;5.10;99.90;;;;;;5061252;28;20188;-91
2023/04/04 01:29:40;;;;;;;5.13;1.93;;;5.20;99.90;;;;;;5061329;28;20196;-91
2023/04/04 01:32:19;;;;;;;10.57;2.40;;;5.20;99.90;;;;;;5060780;28;20172;-91
2023/04/04 01:35:01;;;;;;;6.07;2.20;;;5.10;99.90;;;;;;5079050;28;20723;-91
2023/04/04 01:37:36;;;;;;;4.93;1.90;;;5.00;99.90;;;;;;5061957;28;20208;-91
2023/04/04 01:40:22;;;;;;;3.80;1.90;;;4.90;99.90;;;;;;5062753;28;20219;-91
2023/04/04 01:42:50;;;;;;;5.13;1.90;;;4.90;99.90;;;;;;5062353;28;20192;-90
2023/04/04 01:45:16;;;;;;;4.67;2.43;;;4.90;99.90;;;;;;5062093;28;20803;-91
2023/04/04 01:47:44;;;;;;;5.43;2.10;;;4.80;99.90;;;;;;5062171;28;20208;-90
2023/04/04 01:50:11;;;;;;;5.13;2.57;;;4.80;99.90;;;;;;5063154;28;20180;-90
2023/04/04 01:52:38;;;;;;;5.90;2.30;;;4.70;99.90;;;;;;5064284;28;20172;-90
2023/04/04 01:55:04;;;;;;;6.07;2.60;;;4.80;99.90;;;;;;5058951;28;20164;-88
2023/04/04 01:57:30;;;;;;;5.40;2.63;;;4.70;99.90;;;;;;5078932;28;20194;-90
2023/04/04 01:59:56;;;;;;;6.47;2.40;;;4.70;99.90;;;;;;5078410;28;20715;-91
2023/04/04 02:02:25;;;;;;;4.03;1.87;;;4.90;99.90;;;;;;5071915;28;20172;-90
2023/04/04 02:05:09;;;;;;;5.77;2.10;;;4.80;99.90;;;;;;5065992;28;20184;-90
2023/04/04 02:07:37;;;;;;;5.50;2.23;;;4.70;99.90;;;;;;5068026;28;20215;-90
2023/04/04 02:10:04;;;;;;;3.57;1.90;;;4.70;99.90;;;;;;5067788;28;20176;-91
2023/04/04 02:12:32;;;;;;;5.23;2.10;;;4.70;99.90;;;;;;5061120;28;20168;-91
2023/04/04 02:15:04;;;;;;;3.87;2.03;;;4.70;99.90;;;;;;5071473;28;20168;-91
2023/04/04 02:17:34;;;;;;;5.07;2.17;;;4.60;99.90;;;;;;5059273;28;20214;-91
2023/04/04 02:20:01;;;;;;;4.47;2.20;;;4.60;99.90;;;;;;5057406;28;20207;-91
2023/04/04 02:22:26;;;;;;;4.30;2.30;;;4.70;99.90;;;;;;5057272;28;20206;-91
2023/04/04 02:24:56;;;;;;;4.43;2.33;;;4.50;99.90;;;;;;5063798;28;20171;-91
2023/04/04 02:27:24;;;;;;;4.23;2.20;;;4.50;99.90;;;;;;5071837;28;20172;-89
2023/04/04 02:29:49;;;;;;;3.93;2.03;;;4.60;99.90;;;;;;5077213;28;20179;-90
2023/04/04 02:32:21;;;;;;;5.77;2.20;;;4.40;99.90;;;;;;5080457;28;20187;-90
2023/04/04 02:34:53;;;;;;;5.07;2.53;;;4.40;99.90;;;;;;5092184;28;20173;-90
2023/04/04 02:38:04;;;;;;;4.93;1.90;;;4.40;99.90;;;;;;5070064;28;20211;-91
2023/04/04 02:40:56;;;;;;;5.50;2.43;;;4.40;99.90;;;;;;5062471;28;20188;-90
2023/04/04 02:43:23;;;;;;;3.97;2.30;;;4.40;99.90;;;;;;5060208;28;20326;-92
2023/04/04 02:45:49;;;;;;;5.97;2.17;;;4.40;99.90;;;;;;5062328;28;20229;-91
2023/04/04 02:48:15;;;;;;;6.93;2.53;;;4.30;99.90;;;;;;5068374;28;20243;-90
2023/04/04 02:50:41;;;;;;;8.10;2.30;;;4.50;99.90;;;;;;5077712;28;20234;-91
2023/04/04 02:53:18;;;;;;;6.63;2.37;;;4.30;99.90;;;;;;5076040;28;20237;-91
2023/04/04 02:55:46;;;;;;;5.73;2.83;;;4.30;99.90;;;;;;5067959;28;20172;-90
2023/04/04 02:58:12;;;;;;;5.70;2.53;;;4.20;99.90;;;;;;5056559;28;20231;-90
2023/04/04 03:00:37;;;;;;;4.37;2.40;;;4.20;99.90;;;;;;5074684;28;20579;-90
2023/04/04 03:03:04;;;;;;;7.73;2.87;;;4.20;99.90;;;;;;5075130;28;20168;-90
2023/04/04 03:05:36;;;;;;;4.23;2.30;;;4.20;99.90;;;;;;5077509;28;20159;-90
2023/04/04 03:08:03;;;;;;;3.53;2.10;;;4.20;99.90;;;;;;5051465;28;20176;-90
2023/04/04 03:10:32;;;;;;;4.60;2.87;;;4.20;99.90;;;;;;5062931;28;20176;-90
2023/04/04 03:12:58;;;;;;;4.23;2.37;;;4.20;99.90;;;;;;5077121;28;20220;-90
2023/04/04 03:15:27;;;;;;;4.47;2.10;;;4.20;99.90;;;;;;5074177;28;20506;-89
2023/04/04 03:17:53;;;;;;;8.17;2.93;;;4.20;99.90;;;;;;5063512;28;20215;-90
2023/04/04 03:20:36;;;;;;;4.63;2.17;;;4.10;99.90;;;;;;5059057;28;20165;-90
2023/04/04 03:23:02;;;;;;;4.63;2.20;;;4.20;99.90;;;;;;5062636;28;20176;-90
2023/04/04 03:25:27;;;;;;;6.27;2.23;;;4.10;99.90;;;;;;5063934;28;20199;-90
2023/04/04 03:27:54;;;;;;;5.77;2.90;;;4.20;99.90;;;;;;5063070;28;20183;-90
2023/04/04 03:30:22;;;;;;;6.63;2.50;;;4.20;99.90;;;;;;5075744;28;20215;-89
2023/04/04 03:32:54;;;;;;;5.47;2.53;;;4.20;99.90;;;;;;5093296;28;20225;-90
2023/04/04 03:35:19;;;;;;;8.13;2.47;;;4.20;99.90;;;;;;5071490;28;20173;-90
2023/04/04 03:37:51;;;;;;;9.50;2.77;;;4.10;99.90;;;;;;5062180;28;20290;-91
2023/04/04 03:40:17;;;;;;;7.63;2.77;;;4.00;99.90;;;;;;5075161;28;20245;-91
2023/04/04 03:42:42;;;;;;;6.17;2.77;;;4.00;99.90;;;;;;5082032;28;20172;-90
2023/04/04 03:45:10;;;;;;;4.17;2.23;;;4.10;99.90;;;;;;5069207;28;20177;-91
2023/04/04 03:47:36;;;;;;;5.53;2.40;;;4.10;99.90;;;;;;5060968;28;20225;-91
2023/04/04 03:50:02;;;;;;;6.43;2.83;;;4.00;99.90;;;;;;5060104;28;20267;-90
2023/04/04 03:52:27;;;;;;;9.17;3.03;;;4.00;99.90;;;;;;5058886;28;20180;-91
2023/04/04 03:54:53;;;;;;;5.13;2.77;;;3.90;99.90;;;;;;5059975;28;20703;-91
2023/04/04 03:57:20;;;;;;;5.17;3.03;;;3.90;99.90;;;;;;5059612;28;20546;-90
2023/04/04 03:59:46;;;;;;;5.70;2.50;;;3.80;99.90;;;;;;5077506;28;20168;-91
2023/04/04 04:02:12;;;;;;;5.87;3.87;;;3.80;99.90;;;;;;5076922;28;20218;-90
2023/04/04 04:04:37;;;;;;;5.10;2.43;;;3.80;99.90;;;;;;5066953;28;20230;-89
2023/04/04 04:07:03;;;;;;;7.77;3.20;;;3.80;99.90;;;;;;5064510;28;20511;-91
2023/04/04 04:09:31;;;;;;;6.03;2.70;;;3.80;99.90;;;;;;5060939;28;20558;-89
2023/04/04 04:11:57;;;;;;;4.93;2.80;;;3.70;99.90;;;;;;5062970;28;20183;-91
2023/04/04 04:14:22;;;;;;;6.43;3.17;;;3.80;99.90;;;;;;5081414;28;20172;-90
2023/04/04 04:16:54;;;;;;;5.43;2.50;;;3.80;99.90;;;;;;5061432;28;20259;-92
2023/04/04 04:19:22;;;;;;;6.97;3.47;;;3.80;99.90;;;;;;5062852;28;20315;-92
2023/04/04 04:22:09;;;;;;;6.40;2.70;;;3.70;99.90;;;;;;5062590;28;20168;-91
2023/04/04 04:24:37;;;;;;;8.43;2.73;;;3.70;99.90;;;;;;5077653;28;20189;-89
2023/04/04 04:27:04;;;;;;;4.30;2.70;;;3.70;99.90;;;;;;5061584;28;20175;-91
2023/04/04 04:29:29;;;;;;;6.00;2.83;;;3.60;99.90;;;;;;5065039;28;20183;-89
2023/04/04 04:31:56;;;;;;;8.13;2.57;;;3.70;99.90;;;;;;5070112;28;20164;-89
2023/04/04 04:34:22;;;;;;;6.77;3.40;;;3.70;99.90;;;;;;5064187;28;20188;-90
2023/04/04 04:36:47;;;;;;;6.23;2.60;;;3.70;99.90;;;;;;5061272;28;20195;-90
2023/04/04 04:39:16;;;;;;;6.80;2.47;;;3.60;99.90;;;;;;5061348;28;20224;-90
2023/04/04 04:41:42;;;;;;;5.90;2.63;;;3.50;99.90;;;;;;5061507;28;20171;-92
2023/04/04 04:44:07;;;;;;;6.53;3.40;;;3.60;99.90;;;;;;5066770;28;20184;-89
2023/04/04 04:46:33;;;;;;;5.30;2.80;;;3.70;99.90;;;;;;5066894;28;20173;-89
2023/04/04 04:49:01;;;;;;;7.80;3.10;;;3.60;99.90;;;;;;5062506;28;20184;-92
2023/04/04 04:51:27;;;;;;;6.10;2.43;;;3.60;99.90;;;;;;5070804;28;20220;-91
2023/04/04 04:53:52;;;;;;;6.23;2.27;;;3.60;99.90;;;;;;5097815;28;20173;-92
2023/04/04 04:56:18;;;;;;;8.77;5.37;;;3.60;99.90;;;;;;5063838;28;20168;-91
2023/04/04 04:58:47;;;;;;;7.27;3.00;;;3.60;99.90;;;;;;5062466;28;20216;-92
2023/04/04 05:01:13;;;;;;;7.57;2.60;;;3.50;99.90;;;;;;5059566;28;20548;-90
2023/04/04 05:03:39;;;;;;;8.40;4.20;;;3.60;99.90;;;;;;5074872;28;20164;-90
2023/04/04 05:06:05;;;;;;;6.23;2.90;;;3.60;99.90;;;;;;5070064;28;20191;-90
2023/04/04 05:08:36;;;;;;;7.63;2.90;;;3.70;99.90;;;;;;5080677;28;20195;-89
2023/04/04 05:11:01;;;;;;;4.67;2.70;;;3.70;99.90;;;;;;5089324;28;20168;-90
2023/04/04 05:13:30;;;;;;;6.73;2.60;;;3.70;99.90;;;;;;5063378;28;20214;-91
2023/04/04 05:15:57;;;;;;;7.03;3.03;;;3.80;99.90;;;;;;5068774;28;20176;-90
2023/04/04 05:18:23;;;;;;;6.77;2.83;;;3.50;99.90;;;;;;5062384;28;20242;-92
2023/04/04 05:20:57;;;;;;;6.83;2.70;;;3.50;99.90;;;;;;5079592;28;20176;-91
2023/04/04 05:23:26;;;;;;;6.13;2.63;;;3.50;99.90;;;;;;5070821;28;20248;-91
2023/04/04 05:25:58;;;;;;;8.90;3.23;;;3.50;99.90;;;;;;5063438;28;20722;-91
2023/04/04 05:28:25;;;;;;;7.60;2.87;;;3.60;99.90;;;;;;5060587;28;20177;-94
2023/04/04 05:30:52;;;;;;;8.00;3.30;;;3.50;99.90;;;;;;5062706;28;20233;-91
2023/04/04 05:33:18;;;;;;;7.37;3.57;;;3.30;99.90;;;;;;5077013;28;20473;-90
2023/04/04 05:35:46;;;;;;;8.27;3.03;;;3.50;99.90;;;;;;5063558;28;20180;-89
2023/04/04 05:38:14;;;;;;;8.27;2.97;;;3.60;99.90;;;;;;5068572;28;20226;-91
2023/04/04 05:40:44;;;;;;;8.33;3.17;;;3.50;99.90;;;;;;5075701;28;20655;-91
2023/04/04 05:43:13;;;;;;;10.47;3.10;;;3.40;99.90;;;;;;5073232;28;20164;-89
2023/04/04 05:45:41;;;;;;;7.03;3.47;;;3.50;99.90;;;;;;5063196;28;20262;-89
2023/04/04 05:48:06;;;;;;;6.93;2.83;;;3.60;99.90;;;;;;5060645;28;20663;-91
2023/04/04 05:50:35;;;;;;;4.93;2.77;;;3.60;99.90;;;;;;5060308;28;20169;-91
2023/04/04 05:53:09;;;;;;;6.73;3.03;;;3.60;99.90;;;;;;5059312;28;20180;-90
2023/04/04 05:55:39;;;;;;;6.20;3.60;;;3.80;99.90;;;;;;5060423;28;20165;-90
2023/04/04 05:58:05;;;;;;;8.23;2.90;;;3.80;99.90;;;;;;5074289;28;20208;-90
2023/04/04 06:00:34;;;;;;;7.40;2.90;;;3.90;99.90;;;;;;5089425;28;20187;-91
2023/04/04 06:03:00;;;;;;;7.90;3.07;;;3.80;99.90;;;;;;5071322;28;20175;-90
2023/04/04 06:05:26;;;;;;;10.77;3.27;;;3.80;99.90;;;;;;5068183;28;20168;-91
2023/04/04 06:07:52;;;;;;;8.10;4.20;;;3.90;99.90;;;;;;5059049;28;20190;-90
2023/04/04 06:10:17;;;;;;;10.20;3.17;;;3.60;99.90;;;;;;5058893;28;20186;-91
2023/04/04 06:12:43;;;;;;;7.23;2.80;;;3.60;99.90;;;;;;5060330;28;20176;-90
2023/04/04 06:15:11;;;;;;;9.53;3.70;;;3.70;99.90;;;;;;5060357;28;20176;-90
2023/04/04 06:17:38;;;;;;;8.17;3.67;;;3.60;99.90;;;;;;5058636;28;20211;-89
2023/04/04 06:20:05;;;;;;;9.03;3.90;;;3.60;99.90;;;;;;5059190;28;20192;-90
2023/04/04 06:22:38;;;;;;;9.37;3.67;;;3.50;99.90;;;;;;5059761;28;20184;-92
2023/04/04 06:25:05;;;;;;;9.50;3.40;;;3.50;99.90;;;;;;5058694;28;20180;-91
2023/04/04 06:27:32;;;;;;;8.87;4.03;;;3.60;99.90;;;;;;5061216;28;20323;-91
2023/04/04 06:29:59;;;;;;;9.63;3.57;;;3.90;99.90;;;;;;5060264;28;20200;-91
2023/04/04 06:32:25;;;;;;;7.17;3.13;;;3.70;99.90;;;;;;5062163;28;20179;-91
2023/04/04 06:34:55;;;;;;;8.17;3.90;;;3.90;99.90;;;;;;5063386;28;20168;-92
2023/04/04 06:37:21;;;;;;;23.37;9.30;;;3.80;99.90;;;;;;5065381;28;20172;-91
2023/04/04 06:39:47;;;;;;;6.90;3.80;;;3.90;99.90;;;;;;5064887;28;20283;-89
2023/04/04 06:42:13;;;;;;;9.43;4.00;;;3.90;99.90;;;;;;5061901;28;20172;-90
2023/04/04 06:44:44;;;;;;;6.70;3.40;;;4.00;99.90;;;;;;5059885;28;20183;-92
2023/04/04 06:47:11;;;;;;;8.47;3.43;;;4.20;99.90;;;;;;5062646;28;20172;-92
2023/04/04 06:49:39;;;;;;;9.20;3.90;;;4.30;99.90;;;;;;5061857;28;20227;-93
2023/04/04 06:52:07;;;;;;;13.07;3.47;;;4.30;99.90;;;;;;5059905;28;20172;-94
2023/04/04 06:54:33;;;;;;;7.10;3.57;;;4.30;99.90;;;;;;5061251;28;20270;-91
2023/04/04 06:56:58;;;;;;;10.50;3.50;;;4.40;99.90;;;;;;5061015;28;20223;-88
2023/04/04 06:59:24;;;;;;;11.47;3.77;;;4.60;99.90;;;;;;5061437;28;20208;-89
2023/04/04 07:01:51;;;;;;;7.57;3.30;;;4.60;99.90;;;;;;5065310;28;20198;-90
2023/04/04 07:04:25;;;;;;;7.57;3.20;;;4.60;99.90;;;;;;5070730;28;20182;-90
2023/04/04 07:06:51;;;;;;;8.00;3.70;;;4.70;99.90;;;;;;5092626;28;20229;-88
2023/04/04 07:09:17;;;;;;;12.13;3.43;;;5.00;99.90;;;;;;5078482;28;20617;-88
2023/04/04 07:11:43;;;;;;;9.80;3.57;;;4.90;99.90;;;;;;5074643;28;20183;-88
2023/04/04 07:14:11;;;;;;;9.53;3.77;;;4.90;99.90;;;;;;5071331;28;20192;-88
2023/04/04 07:16:41;;;;;;;10.90;4.17;;;4.90;99.90;;;;;;5067887;28;20203;-89
2023/04/04 07:19:12;;;;;;;14.17;3.87;;;4.90;99.90;;;;;;5048050;28;20220;-90
2023/04/04 07:21:39;;;;;;;9.10;3.20;;;5.10;99.90;;;;;;5076753;28;20164;-94
2023/04/04 07:24:14;;;;;;;7.13;3.10;;;4.80;99.90;;;;;;5081459;28;20196;-95
2023/04/04 07:26:40;;;;;;;9.30;3.20;;;4.80;99.90;;;;;;5072094;28;20176;-92
2023/04/04 07:29:09;;;;;;;7.73;3.07;;;4.70;99.90;;;;;;5064766;28;20173;-91
2023/04/04 07:31:36;;;;;;;7.10;3.20;;;4.90;99.90;;;;;;5083224;28;20660;-92
2023/04/04 07:34:02;;;;;;;5.77;2.93;;;4.90;99.90;;;;;;5066299;28;20200;-90
2023/04/04 07:36:32;;;;;;;7.70;3.27;;;5.30;99.90;;;;;;5064804;28;20184;-91
2023/04/04 07:39:01;;;;;;;5.00;2.37;;;5.20;99.90;;;;;;5078098;28;20206;-91
2023/04/04 07:41:32;;;;;;;6.37;2.50;;;5.30;99.90;;;;;;5077231;28;20269;-91
2023/04/04 07:44:00;;;;;;;5.70;2.83;;;5.40;99.90;;;;;;5068851;28;20629;-89
2023/04/04 07:46:34;;;;;;;5.33;2.17;;;5.50;99.90;;;;;;5049688;28;20166;-90
2023/04/04 07:49:00;;;;;;;6.63;2.23;;;5.50;99.90;;;;;;5064500;28;20241;-89
2023/04/04 07:51:30;;;;;;;8.07;2.70;;;5.60;99.90;;;;;;5062633;28;20210;-91
2023/04/04 07:53:56;;;;;;;6.07;2.63;;;5.70;99.90;;;;;;5061286;28;20180;-88
2023/04/04 07:56:22;;;;;;;8.63;3.90;;;6.00;99.90;;;;;;5064498;28;20172;-87
2023/04/04 07:58:48;;;;;;;4.67;2.47;;;5.70;99.90;;;;;;5077828;28;20204;-87
2023/04/04 08:01:13;;;;;;;5.03;2.30;;;5.70;99.90;;;;;;5073574;28;20164;-92
2023/04/04 08:03:45;;;;;;;4.23;2.40;;;5.70;99.90;;;;;;5065708;28;20200;-90
2023/04/04 08:06:17;;;;;;;5.03;2.30;;;5.70;99.90;;;;;;5084169;28;20581;-93
2023/04/04 08:08:46;;;;;;;5.97;2.10;;;5.80;99.90;;;;;;5069372;28;20177;-92
2023/04/04 08:11:12;;;;;;;5.37;2.17;;;5.80;99.90;;;;;;5062139;28;20662;-91
2023/04/04 08:13:38;;;;;;;4.43;2.23;;;5.90;99.90;;;;;;5062522;28;20177;-90
2023/04/04 08:16:05;;;;;;;7.07;2.20;;;6.00;99.90;;;;;;5063950;28;20164;-89
2023/04/04 08:18:31;;;;;;;4.00;2.13;;;6.00;99.90;;;;;;5074401;28;20192;-89
2023/04/04 08:20:59;;;;;;;4.00;2.10;;;6.10;99.90;;;;;;5081754;28;20246;-91
2023/04/04 08:23:25;;;;;;;6.47;2.30;;;6.20;99.90;;;;;;5081806;28;20180;-90
2023/04/04 08:25:52;;;;;;;3.63;2.13;;;6.20;99.90;;;;;;5073381;28;20176;-91
2023/04/04 08:28:33;;;;;;;5.00;2.03;;;6.00;99.90;;;;;;5085588;28;20176;-91
2023/04/04 08:31:00;;;;;;;3.13;1.77;;;6.00;99.90;;;;;;5046889;28;20204;-91
2023/04/04 08:33:29;;;;;;;5.17;1.90;;;6.00;99.90;;;;;;5080158;28;20238;-91
2023/04/04 08:35:57;;;;;;;3.87;2.23;;;6.00;99.90;;;;;;5062367;28;20206;-91
2023/04/04 08:38:29;;;;;;;4.37;2.30;;;6.20;99.90;;;;;;5079922;28;20263;-90
2023/04/04 08:40:59;;;;;;;7.80;2.10;;;6.20;99.90;;;;;;5079397;28;20188;-90
2023/04/04 08:43:26;;;;;;;4.97;2.40;;;6.20;99.90;;;;;;5075630;28;20176;-89
2023/04/04 08:45:53;;;;;;;6.53;2.50;;;6.40;99.90;;;;;;5042395;28;20641;-91
2023/04/04 08:48:22;;;;;;;5.80;2.30;;;6.80;99.90;;;;;;5042784;28;20172;-89
2023/04/04 08:50:49;;;;;;;5.70;2.57;;;6.60;99.90;;;;;;5041320;28;20203;-89
2023/04/04 08:53:15;;;;;;;5.90;2.00;;;6.50;99.90;;;;;;5041168;28;20222;-90
2023/04/04 08:55:42;;;;;;;4.80;2.10;;;6.50;99.90;;;;;;5074262;28;20628;-89
2023/04/04 08:58:08;;;;;;;5.13;2.00;;;6.60;99.90;;;;;;5076006;28;20208;-89
2023/04/04 09:00:33;;;;;;;4.33;2.00;;;6.80;99.90;;;;;;5076794;28;20183;-91
2023/04/04 09:03:17;;;;;;;4.23;2.20;;;6.60;99.90;;;;;;5076544;28;20180;-88
2023/04/04 09:05:47;;;;;;;7.03;2.03;;;6.70;99.90;;;;;;5069055;28;20168;-89
2023/04/04 09:08:15;;;;;;;3.93;1.80;;;6.80;99.90;;;;;;5068009;28;20183;-93
2023/04/04 09:10:47;;;;;;;3.53;2.30;;;6.80;99.90;;;;;;5080339;28;20177;-88
2023/04/04 09:13:18;;;;;;;5.93;3.00;;;6.70;99.90;;;;;;5078374;28;20180;-92
2023/04/04 09:15:53;;;;;;;4.07;2.50;;;6.90;99.90;;;;;;5059805;28;20183;-91
2023/04/04 09:18:19;;;;;;;4.20;2.27;;;6.80;99.90;;;;;;5072356;28;20207;-91
2023/04/04 09:20:46;;;;;;;4.83;2.13;;;6.80;99.90;;;;;;5072876;28;20196;-93
2023/04/04 09:23:26;;;;;;;4.53;2.23;;;6.80;99.90;;;;;;5061838;28;20216;-91
2023/04/04 09:25:54;;;;;;;4.00;2.40;;;6.70;99.90;;;;;;5029451;28;20181;-90
2023/04/04 09:28:22;;;;;;;6.53;2.33;;;6.70;99.90;;;;;;5045288;28;20173;-90
2023/04/04 09:30:49;;;;;;;5.37;2.43;;;6.80;99.90;;;;;;5029314;28;20335;-90
2023/04/04 09:33:16;;;;;;;5.13;2.20;;;6.80;99.90;;;;;;5031184;28;20191;-91
2023/04/04 09:35:51;;;;;;;4.57;2.00;;;6.80;99.90;;;;;;5041115;28;20585;-89
2023/04/04 09:38:19;;;;;;;6.83;2.10;;;6.90;99.90;;;;;;5041071;28;20208;-92
2023/04/04 09:40:46;;;;;;;7.20;2.50;;;7.20;99.90;;;;;;5052607;28;20191;-90
2023/04/04 09:43:13;;;;;;;5.63;2.57;;;7.40;99.90;;;;;;5036797;28;20554;-89
2023/04/04 09:45:43;;;;;;;4.47;2.10;;;7.50;99.90;;;;;;5056059;28;20172;-88
2023/04/04 09:48:10;;;;;;;6.43;2.60;;;7.40;99.90;;;;;;5028660;28;20182;-88
2023/04/04 09:50:44;;;;;;;5.57;2.20;;;7.40;99.90;;;;;;5050679;28;20168;-87
2023/04/04 09:53:16;;;;;;;6.03;2.63;;;7.60;99.90;;;;;;5047388;28;20181;-88
2023/04/04 09:55:49;;;;;;;4.10;2.47;;;7.50;99.90;;;;;;5057333;28;20169;-89
2023/04/04 09:58:16;;;;;;;4.07;2.27;;;7.50;99.90;;;;;;5080904;28;20202;-89
2023/04/04 10:00:47;;;;;;;4.03;2.20;;;7.50;99.90;;;;;;5073162;28;20258;-92
2023/04/04 10:03:14;;;;;;;4.83;2.37;;;7.50;99.90;;;;;;5070085;28;20180;-90
2023/04/04 10:05:46;;;;;;;3.73;1.90;;;7.40;99.90;;;;;;5071945;28;20172;-88
2023/04/04 10:08:15;;;;;;;6.80;2.37;;;7.70;99.90;;;;;;5048402;28;20238;-90
2023/04/04 10:10:46;;;;;;;7.43;2.30;;;7.60;99.90;;;;;;5060907;28;20184;-90
2023/04/04 10:13:12;;;;;;;4.27;2.13;;;7.70;99.90;;;;;;5059622;28;20176;-92
2023/04/04 10:15:37;;;;;;;3.23;2.00;;;7.60;99.90;;;;;;5059561;28;20620;-92
2023/04/04 10:18:04;;;;;;;4.93;2.00;;;7.60;99.90;;;;;;5058994;28;20686;-91
2023/04/04 10:20:33;;;;;;;4.13;2.37;;;7.60;99.90;;;;;;5059689;28;20255;-91
2023/04/04 10:22:59;;;;;;;5.87;2.40;;;7.60;99.90;;;;;;5061075;28;20180;-90
2023/04/04 10:25:25;;;;;;;6.10;2.23;;;7.70;99.90;;;;;;5061074;28;20515;-90
2023/04/04 10:27:52;;;;;;;4.67;2.33;;;7.80;99.90;;;;;;5060789;28;20256;-86
2023/04/04 10:30:17;;;;;;;6.07;2.40;;;7.90;99.90;;;;;;5060360;28;20198;-89
2023/04/04 10:33:14;;;;;;;5.27;2.43;;;7.90;99.90;;;;;;5059019;28;20204;-93
2023/04/04 10:35:44;;;;;;;4.83;2.47;;;8.10;99.90;;;;;;5072773;28;20172;-89
2023/04/04 10:38:12;;;;;;;5.37;2.50;;;8.20;99.90;;;;;;5065373;28;20207;-87
2023/04/04 10:40:41;;;;;;;4.00;2.50;;;8.20;99.90;;;;;;5069065;28;20184;-87
2023/04/04 10:43:07;;;;;;;5.37;2.87;;;8.10;99.90;;;;;;5065585;28;20214;-89
2023/04/04 10:45:37;;;;;;;4.23;2.40;;;8.00;99.90;;;;;;5059183;28;20175;-90
2023/04/04 10:48:03;;;;;;;5.07;2.40;;;8.20;99.90;;;;;;5057430;28;20168;-87
2023/04/04 10:50:32;;;;;;;5.43;3.27;;;8.10;99.90;;;;;;5040552;28;20238;-90
2023/04/04 10:53:00;;;;;;;6.13;2.90;;;8.00;99.90;;;;;;5057247;28;20172;-89
2023/04/04 10:55:28;;;;;;;5.73;2.80;;;8.00;99.90;;;;;;5057749;28;20222;-90
2023/04/04 10:57:56;;;;;;;6.93;3.20;;;8.20;99.90;;;;;;5046775;28;20299;-86
2023/04/04 11:00:23;;;;;;;4.50;2.80;;;8.40;99.90;;;;;;5074135;28;20256;-88
2023/04/04 11:02:53;;;;;;;6.57;2.50;;;8.40;99.90;;;;;;5076356;28;20223;-88
2023/04/04 11:05:22;;;;;;;6.67;2.93;;;8.30;99.90;;;;;;5074118;28;20186;-88
2023/04/04 11:08:12;;;;;;;7.60;2.80;;;8.30;99.90;;;;;;5079395;28;20196;-88
2023/04/04 11:10:42;;;;;;;5.27;3.03;;;8.20;99.90;;;;;;5076057;28;20168;-88
2023/04/04 11:13:23;;;;;;;4.33;2.53;;;8.20;99.90;;;;;;5071733;28;20198;-87
2023/04/04 11:16:06;;;;;;;4.53;2.70;;;8.20;99.90;;;;;;5067758;28;20161;-88
2023/04/04 11:18:42;;;;;;;5.00;2.90;;;8.20;99.90;;;;;;5078425;28;20219;-85
2023/04/04 11:21:26;;;;;;;5.40;3.20;;;8.30;99.90;;;;;;5079430;28;20219;-84
2023/04/04 11:24:19;;;;;;;6.13;2.63;;;8.60;99.90;;;;;;5079070;28;20156;-86
2023/04/04 11:26:49;;;;;;;5.40;2.83;;;8.20;99.90;;;;;;5072372;28;20226;-87
2023/04/04 11:29:53;;;;;;;7.83;2.67;;;8.30;99.90;;;;;;5072227;28;20240;-88
2023/04/04 11:32:49;;;;;;;4.37;2.30;;;8.20;99.90;;;;;;5058312;28;20210;-91
2023/04/04 11:35:16;;;;;;;4.57;2.80;;;8.20;99.90;;;;;;5055506;28;20629;-88
2023/04/04 11:37:53;;;;;;;10.87;3.17;;;8.30;99.90;;;;;;5088515;28;20234;-88
2023/04/04 11:40:21;;;;;;;6.23;3.00;;;8.40;99.90;;;;;;5064205;28;20195;-88
2023/04/04 11:42:54;;;;;;;4.60;2.93;;;8.40;99.90;;;;;;5087004;28;20175;-91
2023/04/04 11:45:24;;;;;;;4.70;2.97;;;8.50;99.90;;;;;;5072595;28;20172;-92
2023/04/04 11:47:51;;;;;;;6.20;2.97;;;8.60;99.90;;;;;;5082425;28;20172;-92
2023/04/04 11:50:19;;;;;;;6.07;2.90;;;8.70;99.90;;;;;;5078086;28;20179;-89
2023/04/04 11:52:47;;;;;;;5.90;2.70;;;8.80;99.90;;;;;;5046199;28;20165;-88
2023/04/04 11:55:20;;;;;;;5.73;2.40;;;8.90;99.90;;;;;;5073036;28;20207;-91
2023/04/04 11:57:52;;;;;;;5.07;2.20;;;8.90;99.90;;;;;;5047283;28;20208;-92
2023/04/04 12:00:31;;;;;;;6.33;3.17;;;9.10;99.90;;;;;;5070957;28;20551;-89
2023/04/04 12:02:58;;;;;;;5.97;3.07;;;9.10;99.90;;;;;;5056773;28;20188;-89
2023/04/04 12:05:27;;;;;;;4.67;2.67;;;9.10;99.90;;;;;;5048341;28;20169;-93
2023/04/04 12:07:53;;;;;;;5.63;2.27;;;9.20;99.90;;;;;;5054312;28;20198;-89
2023/04/04 12:10:21;;;;;;;4.73;2.37;;;9.30;99.90;;;;;;5067754;28;20539;-87
2023/04/04 12:12:47;;;;;;;5.20;2.40;;;9.10;99.90;;;;;;5066089;28;20176;-91
2023/04/04 12:15:15;;;;;;;6.87;3.17;;;9.10;99.90;;;;;;5049417;28;20179;-89
2023/04/04 12:17:43;;;;;;;4.80;2.77;;;9.10;99.90;;;;;;5077314;28;20211;-86
2023/04/04 12:20:10;;;;;;;6.07;2.63;;;9.10;99.90;;;;;;5077674;28;20632;-90
2023/04/04 12:22:39;;;;;;;6.27;2.77;;;9.30;99.90;;;;;;5074668;28;20177;-87
2023/04/04 12:25:09;;;;;;;4.80;2.67;;;9.40;99.90;;;;;;5075233;28;20183;-87
2023/04/04 12:27:35;;;;;;;5.33;2.70;;;9.40;99.90;;;;;;5092787;28;20214;-88
2023/04/04 12:30:05;;;;;;;5.63;2.50;;;9.60;99.90;;;;;;5074970;28;20556;-89
2023/04/04 12:32:31;;;;;;;4.80;2.80;;;9.50;99.90;;;;;;5070947;28;20207;-89
2023/04/04 12:35:01;;;;;;;5.17;2.73;;;9.40;99.90;;;;;;5067114;28;20232;-88
2023/04/04 12:37:30;;;;;;;6.10;2.63;;;9.30;99.90;;;;;;5056763;28;20697;-91
2023/04/04 12:40:07;;;;;;;6.53;2.60;;;9.60;99.90;;;;;;5072947;28;20188;-93
2023/04/04 12:42:33;;;;;;;5.97;2.93;;;9.70;99.90;;;;;;5048766;28;20182;-92
2023/04/04 12:45:02;;;;;;;5.40;3.07;;;10.00;99.90;;;;;;5048483;28;20180;-85
2023/04/04 12:47:30;;;;;;;4.67;2.80;;;10.10;99.90;;;;;;5065189;28;20207;-90
2023/04/04 12:49:56;;;;;;;5.33;2.40;;;10.10;99.90;;;;;;5082834;28;20172;-89
2023/04/04 12:52:26;;;;;;;6.97;2.50;;;9.90;99.90;;;;;;5063612;28;20263;-91
2023/04/04 12:54:52;;;;;;;4.57;2.20;;;9.90;99.90;;;;;;5060852;28;20176;-92
2023/04/04 12:57:22;;;;;;;4.37;2.23;;;9.80;99.90;;;;;;5063964;28;20179;-90
2023/04/04 12:59:48;;;;;;;7.07;2.50;;;9.90;99.90;;;;;;5063680;28;20184;-87
2023/04/04 13:02:19;;;;;;;5.13;2.57;;;9.80;99.90;;;;;;5063276;28;20192;-87
2023/04/04 13:04:50;;;;;;;4.40;2.50;;;9.50;99.90;;;;;;5047147;28;20176;-92
2023/04/04 13:07:27;;;;;;;5.43;2.63;;;9.60;99.90;;;;;;5074620;28;20164;-87